createdAt,value
2022-11-04T00:01:23.524Z,11.48
2022-11-04T00:03:51.251Z,11.45
2022-11-04T00:06:19.017Z,11.43
2022-11-04T00:08:50.816Z,11.45
2022-11-04T00:11:36.115Z,11.36
2022-11-04T00:14:04.364Z,11.33
2022-11-04T00:16:49.437Z,11.31
2022-11-04T00:19:17.311Z,11.39
2022-11-04T00:22:02.615Z,11.34
2022-11-04T00:24:49.497Z,11.42
2022-11-04T00:27:36.973Z,11.41
2022-11-04T00:30:08.015Z,11.36
2022-11-04T00:32:53.970Z,11.43
2022-11-04T00:35:22.684Z,11.48
2022-11-04T00:37:50.270Z,11.51
2022-11-04T00:40:19.736Z,11.43
2022-11-04T00:42:48.351Z,11.45
2022-11-04T00:45:15.931Z,11.46
2022-11-04T00:47:43.515Z,11.50
2022-11-04T00:50:11.128Z,11.53
2022-11-04T00:52:38.722Z,11.47
2022-11-04T00:55:07.441Z,11.47
2022-11-04T00:57:39.181Z,11.46
2022-11-04T01:00:08.192Z,11.55
2022-11-04T01:02:35.789Z,11.56
2022-11-04T01:05:03.414Z,11.46
2022-11-04T01:07:31.843Z,11.49
2022-11-04T01:09:59.391Z,11.54
2022-11-04T01:12:26.922Z,11.46
2022-11-04T01:14:55.935Z,11.43
2022-11-04T01:17:23.508Z,11.35
2022-11-04T01:19:51.164Z,11.49
2022-11-04T01:22:18.759Z,11.52
2022-11-04T01:24:46.299Z,11.56
2022-11-04T01:27:13.815Z,11.63
2022-11-04T01:29:41.530Z,11.53
2022-11-04T01:32:10.406Z,11.59
2022-11-04T01:34:42.388Z,11.61
2022-11-04T01:37:11.763Z,11.61
2022-11-04T01:39:39.293Z,11.57
2022-11-04T01:42:06.968Z,11.57
2022-11-04T01:44:50.074Z,11.50
2022-11-04T01:47:20.640Z,11.52
2022-11-04T01:49:52.487Z,11.45
2022-11-04T01:52:26.290Z,11.44
2022-11-04T01:54:56.808Z,11.51
2022-11-04T01:57:30.377Z,11.52
2022-11-04T02:00:02.407Z,11.41
2022-11-04T02:02:31.689Z,11.37
2022-11-04T02:04:59.339Z,11.28
2022-11-04T02:07:27.140Z,11.19
2022-11-04T02:09:56.097Z,11.17
2022-11-04T02:12:41.172Z,11.22
2022-11-04T02:15:09.443Z,11.13
2022-11-04T02:18:00.734Z,11.05
2022-11-04T02:20:43.365Z,10.95
2022-11-04T02:23:42.211Z,10.87
2022-11-04T02:26:36.309Z,10.84
2022-11-04T02:29:27.163Z,10.71
2022-11-04T02:32:01.637Z,10.70
2022-11-04T02:34:41.376Z,10.74
2022-11-04T02:37:15.607Z,10.68
2022-11-04T02:39:52.208Z,10.70
2022-11-04T02:42:27.200Z,10.72
2022-11-04T02:45:09.503Z,10.70
2022-11-04T02:47:40.945Z,10.62
2022-11-04T02:50:13.001Z,10.59
2022-11-04T02:52:50.292Z,10.52
2022-11-04T02:55:24.039Z,10.46
2022-11-04T02:57:54.928Z,10.46
2022-11-04T03:00:23.951Z,10.40
2022-11-04T03:02:58.360Z,10.41
2022-11-04T03:05:29.703Z,10.38
2022-11-04T03:08:02.076Z,10.41
2022-11-04T03:10:36.443Z,10.35
2022-11-04T03:13:08.605Z,10.37
2022-11-04T03:15:40.945Z,10.31
2022-11-04T03:18:19.294Z,10.30
2022-11-04T03:20:49.526Z,10.23
2022-11-04T03:23:17.936Z,10.23
2022-11-04T03:25:47.674Z,10.23
2022-11-04T03:28:30.814Z,10.14
2022-11-04T03:31:05.069Z,10.11
2022-11-04T03:33:41.339Z,10.09
2022-11-04T03:36:09.800Z,10.01
2022-11-04T03:38:38.837Z,9.97
2022-11-04T03:41:14.882Z,10.04
2022-11-04T03:43:42.936Z,9.97
2022-11-04T03:46:12.028Z,9.95
2022-11-04T03:48:39.849Z,9.94
2022-11-04T03:51:07.676Z,9.95
2022-11-04T03:53:39.353Z,9.92
2022-11-04T03:56:30.306Z,9.99
2022-11-04T03:59:13.236Z,10.03
2022-11-04T04:01:50.337Z,9.95
2022-11-04T04:04:24.201Z,9.97
2022-11-04T04:06:55.668Z,10.01
2022-11-04T04:09:27.607Z,10.00
2022-11-04T04:12:02.176Z,9.91
2022-11-04T04:14:39.992Z,9.91
2022-11-04T04:17:17.016Z,9.89
2022-11-04T04:19:49.358Z,9.71
2022-11-04T04:22:21.898Z,9.71
2022-11-04T04:25:10.366Z,9.65
2022-11-04T04:27:40.135Z,9.67
2022-11-04T04:30:10.249Z,9.71
2022-11-04T04:32:44.598Z,9.67
2022-11-04T04:35:30.446Z,9.63
2022-11-04T04:38:21.728Z,9.54
2022-11-04T04:41:12.740Z,9.46
2022-11-04T04:44:01.175Z,9.45
2022-11-04T04:46:29.299Z,9.46
2022-11-04T04:49:05.101Z,9.46
2022-11-04T04:51:33.313Z,9.42
2022-11-04T04:54:00.873Z,9.40
2022-11-04T04:56:28.430Z,9.40
2022-11-04T04:58:56.780Z,9.39
2022-11-04T05:01:24.707Z,9.35
2022-11-04T05:03:52.389Z,9.39
2022-11-04T05:06:21.684Z,9.40
2022-11-04T05:08:49.330Z,9.41
2022-11-04T05:11:17.182Z,9.44
2022-11-04T05:13:44.823Z,9.35
2022-11-04T05:16:12.768Z,9.32
2022-11-04T05:18:40.429Z,9.27
2022-11-04T05:21:09.795Z,9.26
2022-11-04T05:23:38.755Z,9.20
2022-11-04T05:26:06.956Z,9.22
2022-11-04T05:28:34.655Z,9.25
2022-11-04T05:31:04.253Z,9.24
2022-11-04T05:33:32.248Z,9.25
2022-11-04T05:36:06.856Z,9.28
2022-11-04T05:38:34.783Z,9.33
2022-11-04T05:41:07.841Z,9.29
2022-11-04T05:43:35.980Z,9.32
2022-11-04T05:46:03.952Z,9.34
2022-11-04T05:48:35.107Z,9.33
2022-11-04T05:51:05.588Z,9.26
2022-11-04T05:53:33.236Z,9.30
2022-11-04T05:56:00.976Z,9.33
2022-11-04T05:58:29.866Z,9.34
2022-11-04T06:01:12.336Z,9.33
2022-11-04T06:03:40.055Z,9.31
2022-11-04T06:06:07.654Z,9.33
2022-11-04T06:08:39.916Z,9.34
2022-11-04T06:11:10.239Z,9.46
2022-11-04T06:13:39.163Z,9.46
2022-11-04T06:16:07.490Z,9.54
2022-11-04T06:18:35.274Z,9.56
2022-11-04T06:21:11.913Z,9.55
2022-11-04T06:23:39.609Z,9.54
2022-11-04T06:26:08.028Z,9.52
2022-11-04T06:28:36.364Z,9.50
2022-11-04T06:31:08.678Z,9.39
2022-11-04T06:33:41.031Z,9.42
2022-11-04T06:36:11.226Z,9.45
2022-11-04T06:38:39.078Z,9.49
2022-11-04T06:41:16.604Z,9.48
2022-11-04T06:43:44.386Z,9.36
2022-11-04T06:46:30.759Z,9.34
2022-11-04T06:48:58.448Z,9.43
2022-11-04T06:51:26.638Z,9.49
2022-11-04T06:53:54.365Z,9.59
2022-11-04T06:56:22.137Z,9.65
2022-11-04T06:58:50.189Z,9.66
2022-11-04T07:01:21.728Z,9.69
2022-11-04T07:03:51.801Z,9.77
2022-11-04T07:06:20.152Z,9.80
2022-11-04T07:08:48.236Z,9.86
2022-11-04T07:11:17.099Z,9.91
2022-11-04T07:13:45.148Z,9.95
2022-11-04T07:16:12.819Z,9.98
2022-11-04T07:18:42.721Z,10.09
2022-11-04T07:21:12.888Z,10.16
2022-11-04T07:23:40.629Z,10.20
2022-11-04T07:26:09.855Z,10.27
2022-11-04T07:28:40.153Z,10.37
2022-11-04T07:31:09.848Z,10.41
2022-11-04T07:33:37.494Z,10.39
2022-11-04T07:36:06.383Z,10.49
2022-11-04T07:38:35.377Z,10.56
2022-11-04T07:41:05.217Z,10.66
2022-11-04T07:43:32.933Z,10.71
2022-11-04T07:46:01.687Z,10.67
2022-11-04T07:48:29.295Z,10.83
2022-11-04T07:50:59.855Z,10.83
2022-11-04T07:53:28.324Z,10.89
2022-11-04T07:55:57.456Z,10.89
2022-11-04T07:58:26.185Z,10.92
2022-11-04T08:01:00.256Z,11.05
2022-11-04T08:03:28.036Z,11.08
2022-11-04T08:05:57.363Z,11.07
2022-11-04T08:08:25.126Z,11.14
2022-11-04T08:10:56.620Z,11.26
2022-11-04T08:13:29.361Z,11.21
2022-11-04T08:15:57.326Z,11.30
2022-11-04T08:18:25.705Z,11.26
2022-11-04T08:20:55.742Z,11.29
2022-11-04T08:23:23.533Z,11.23
2022-11-04T08:25:51.305Z,11.15
2022-11-04T08:28:18.922Z,11.21
2022-11-04T08:30:55.754Z,11.18
2022-11-04T08:33:24.423Z,11.07
2022-11-04T08:35:52.245Z,11.21
2022-11-04T08:38:20.046Z,11.23
2022-11-04T08:40:47.911Z,11.33
2022-11-04T08:43:15.547Z,11.32
2022-11-04T08:45:45.699Z,11.34
2022-11-04T08:48:16.460Z,11.45
2022-11-04T08:50:44.768Z,11.58
2022-11-04T08:53:12.659Z,11.44
2022-11-04T08:55:40.396Z,11.52
2022-11-04T08:58:08.285Z,11.50
2022-11-04T09:00:36.803Z,11.45
2022-11-04T09:03:04.915Z,11.52
2022-11-04T09:05:34.011Z,11.50
2022-11-04T09:08:02.047Z,11.63
2022-11-04T09:10:29.712Z,11.79
2022-11-04T09:12:57.348Z,11.69
2022-11-04T09:15:24.950Z,11.78
2022-11-04T09:17:52.578Z,11.63
2022-11-04T09:20:20.111Z,11.69
2022-11-04T09:22:51.190Z,11.74
2022-11-04T09:25:18.781Z,11.76
2022-11-04T09:27:46.446Z,11.86
2022-11-04T09:30:14.627Z,12.00
2022-11-04T09:32:42.501Z,12.14
2022-11-04T09:35:11.686Z,12.29
2022-11-04T09:37:39.436Z,12.50
2022-11-04T09:40:13.428Z,12.80
2022-11-04T09:42:53.341Z,13.00
2022-11-04T09:45:27.369Z,13.47
2022-11-04T09:48:01.636Z,13.48
2022-11-04T09:50:46.127Z,13.67
2022-11-04T09:53:18.192Z,13.82
2022-11-04T09:55:55.436Z,14.11
2022-11-04T09:58:23.621Z,13.81
2022-11-04T10:01:00.366Z,13.74
2022-11-04T10:03:44.359Z,13.77
2022-11-04T10:06:42.218Z,13.78
2022-11-04T10:09:23.099Z,13.39
2022-11-04T10:12:05.624Z,13.37
2022-11-04T10:14:50.330Z,13.29
2022-11-04T10:17:37.388Z,13.22
2022-11-04T10:20:20.976Z,13.54
2022-11-04T10:22:59.031Z,13.86
2022-11-04T10:25:35.755Z,13.90
2022-11-04T10:28:06.431Z,13.93
2022-11-04T10:30:35.689Z,14.17
2022-11-04T10:33:12.374Z,14.23
2022-11-04T10:35:45.649Z,14.56
2022-11-04T10:38:29.396Z,14.65
2022-11-04T10:40:59.637Z,14.83
2022-11-04T10:43:35.130Z,14.72
2022-11-04T10:46:16.531Z,14.83
2022-11-04T10:48:51.443Z,15.28
2022-11-04T10:51:22.058Z,14.91
2022-11-04T10:53:54.838Z,14.97
2022-11-04T10:56:33.224Z,14.94
2022-11-04T10:59:20.438Z,14.96
2022-11-04T11:01:52.983Z,14.93
2022-11-04T11:04:30.700Z,14.43
2022-11-04T11:07:00.267Z,14.16
2022-11-04T11:09:30.541Z,14.08
2022-11-04T11:12:00.980Z,14.05
2022-11-04T11:14:37.942Z,13.96
2022-11-04T11:17:24.621Z,14.09
2022-11-04T11:19:56.901Z,14.11
2022-11-04T11:22:35.254Z,14.02
2022-11-04T11:25:30.939Z,14.35
2022-11-04T11:28:01.081Z,14.20
2022-11-04T11:30:33.069Z,13.96
2022-11-04T11:33:04.768Z,14.15
2022-11-04T11:35:41.335Z,14.11
2022-11-04T11:38:19.469Z,14.37
2022-11-04T11:41:22.746Z,14.31
2022-11-04T11:43:43.454Z,14.03
2022-11-04T11:46:13.825Z,13.95
2022-11-04T11:48:45.420Z,13.93
2022-11-04T11:51:14.335Z,13.53
2022-11-04T11:53:59.374Z,13.48
2022-11-04T11:56:45.813Z,13.54
2022-11-04T12:02:29.702Z,13.90
2022-11-04T12:10:51.703Z,14.55
2022-11-04T12:13:26.352Z,14.79
2022-11-04T12:16:10.980Z,14.96
2022-11-04T12:18:58.879Z,14.91
2022-11-04T12:21:33.414Z,15.00
2022-11-04T12:24:08.169Z,15.03
2022-11-04T12:26:43.708Z,15.04
2022-11-04T12:29:28.626Z,14.73
2022-11-04T12:32:06.426Z,14.62
2022-11-04T12:34:47.756Z,14.46
2022-11-04T12:37:28.370Z,14.51
2022-11-04T12:40:12.714Z,14.54
2022-11-04T12:43:00.323Z,14.44
2022-11-04T12:45:40.164Z,14.33
2022-11-04T12:48:12.570Z,14.27
2022-11-04T12:50:57.606Z,14.23
2022-11-04T12:53:42.860Z,14.13
2022-11-04T12:56:11.964Z,13.97
2022-11-04T12:58:56.867Z,14.01
2022-11-04T13:01:30.508Z,14.11
2022-11-04T13:04:05.530Z,13.97
2022-11-04T13:06:40.798Z,14.02
2022-11-04T13:09:16.000Z,13.91
2022-11-04T13:11:52.153Z,13.99
2022-11-04T13:14:29.334Z,14.07
2022-11-04T13:17:00.233Z,13.86
2022-11-04T13:19:35.630Z,14.07
2022-11-04T13:22:08.558Z,14.10
2022-11-04T13:24:39.884Z,14.30
2022-11-04T13:27:18.975Z,14.36
2022-11-04T13:29:48.454Z,14.42
2022-11-04T13:32:25.301Z,14.35
2022-11-04T13:34:59.796Z,14.21
2022-11-04T13:37:35.163Z,14.20
2022-11-04T13:40:13.059Z,14.09
2022-11-04T13:43:18.931Z,14.00
2022-11-04T13:45:50.378Z,13.96
2022-11-04T13:48:23.142Z,13.76
2022-11-04T13:50:58.260Z,13.63
2022-11-04T13:53:43.376Z,13.57
2022-11-04T13:56:32.136Z,13.57
2022-11-04T13:59:04.649Z,13.56
2022-11-04T14:01:34.105Z,13.46
2022-11-04T14:04:27.259Z,13.43
2022-11-04T14:06:58.388Z,13.44
2022-11-04T14:09:51.754Z,13.34
2022-11-04T14:12:31.543Z,13.33
2022-11-04T14:15:20.161Z,13.36
2022-11-04T14:18:07.916Z,13.12
2022-11-04T14:21:08.940Z,13.13
2022-11-04T14:23:38.041Z,13.19
2022-11-04T14:26:09.704Z,13.13
2022-11-04T14:28:38.668Z,13.09
2022-11-04T14:31:14.033Z,13.09
2022-11-04T14:33:53.801Z,13.03
2022-11-04T14:36:28.484Z,13.23
2022-11-04T14:38:59.550Z,13.26
2022-11-04T14:41:54.054Z,13.21
2022-11-04T14:44:29.775Z,13.16
2022-11-04T14:47:00.844Z,13.04
2022-11-04T14:49:43.551Z,13.03
2022-11-04T14:52:25.421Z,12.77
2022-11-04T14:54:58.101Z,12.87
2022-11-04T14:57:31.809Z,12.73
2022-11-04T14:59:59.422Z,12.70
2022-11-04T15:02:31.339Z,12.62
2022-11-04T15:05:00.901Z,12.40
2022-11-04T15:07:40.961Z,12.49
2022-11-04T15:10:22.601Z,12.58
2022-11-04T15:12:52.098Z,12.51
2022-11-04T15:15:30.196Z,12.39
2022-11-04T15:18:01.421Z,12.42
2022-11-04T15:20:31.507Z,12.48
2022-11-04T15:23:01.409Z,12.37
2022-11-04T15:25:29.140Z,12.27
2022-11-04T15:27:58.413Z,12.20
2022-11-04T15:30:28.805Z,12.24
2022-11-04T15:33:04.074Z,12.22
2022-11-04T15:35:43.609Z,12.12
2022-11-04T15:38:14.203Z,12.09
2022-11-04T15:40:44.389Z,11.95
2022-11-04T15:43:15.925Z,11.98
2022-11-04T15:45:51.514Z,12.02
2022-11-04T15:48:27.564Z,12.03
2022-11-04T15:51:19.259Z,11.94
2022-11-04T15:53:54.559Z,11.97
2022-11-04T15:56:25.852Z,11.94
2022-11-04T15:58:56.581Z,11.91
2022-11-04T16:01:29.238Z,11.82
2022-11-04T16:03:59.791Z,11.84
2022-11-04T16:06:36.257Z,11.80
2022-11-04T16:09:09.044Z,11.79
2022-11-04T16:11:39.826Z,11.73
2022-11-04T16:14:24.815Z,11.72
2022-11-04T16:16:54.078Z,11.73
2022-11-04T16:19:23.932Z,11.79
2022-11-04T16:22:00.739Z,11.80
2022-11-04T16:24:31.482Z,11.82
2022-11-04T16:26:59.572Z,11.79
2022-11-04T16:29:32.109Z,11.73
2022-11-04T16:32:08.605Z,11.76
2022-11-04T16:34:36.686Z,11.83
2022-11-04T16:37:04.291Z,11.84
2022-11-04T16:39:32.599Z,11.83
2022-11-04T16:42:00.391Z,11.82
2022-11-04T16:44:29.735Z,11.84
2022-11-04T16:46:58.115Z,11.87
2022-11-04T16:49:26.183Z,11.87
2022-11-04T16:51:56.261Z,11.92
2022-11-04T16:54:24.702Z,11.90
2022-11-04T16:56:52.548Z,11.87
2022-11-04T16:59:20.161Z,11.91
2022-11-04T17:01:53.335Z,11.92
2022-11-04T17:04:21.033Z,11.95
2022-11-04T17:06:49.002Z,11.94
2022-11-04T17:09:23.351Z,11.93
2022-11-04T17:11:51.013Z,11.97
2022-11-04T17:14:18.603Z,11.96
2022-11-04T17:16:46.191Z,11.94
2022-11-04T17:19:17.391Z,11.96
2022-11-04T17:21:46.356Z,12.00
2022-11-04T17:24:14.422Z,11.92
2022-11-04T17:26:42.101Z,12.09
2022-11-04T17:29:15.917Z,12.19
2022-11-04T17:31:44.884Z,11.94
2022-11-04T17:34:12.991Z,11.76
2022-11-04T17:36:42.178Z,11.74
2022-11-04T17:39:11.014Z,11.68
2022-11-04T17:41:56.412Z,11.63
2022-11-04T17:44:24.024Z,11.67
2022-11-04T17:46:51.650Z,11.67
2022-11-04T17:49:21.383Z,11.64
2022-11-04T17:51:53.643Z,11.72
2022-11-04T17:54:22.193Z,11.68
2022-11-04T17:56:50.411Z,11.56
2022-11-04T17:59:18.486Z,11.48
2022-11-04T18:01:47.121Z,11.35
2022-11-04T18:04:16.599Z,11.28
2022-11-04T18:06:45.482Z,11.25
2022-11-04T18:09:15.955Z,11.22
2022-11-04T18:12:02.548Z,11.13
2022-11-04T18:14:30.200Z,11.30
2022-11-04T18:16:58.408Z,11.21
2022-11-04T18:19:27.934Z,11.09
2022-11-04T18:21:55.809Z,10.90
2022-11-04T18:24:25.053Z,10.90
2022-11-04T18:26:52.995Z,10.97
2022-11-04T18:29:21.649Z,10.83
2022-11-04T18:31:49.851Z,10.80
2022-11-04T18:34:19.993Z,10.75
2022-11-04T18:36:48.798Z,10.76
2022-11-04T18:39:18.440Z,10.75
2022-11-04T18:41:47.611Z,10.85
2022-11-04T18:44:17.220Z,10.89
2022-11-04T18:46:45.065Z,10.84
2022-11-04T18:49:16.459Z,10.83
2022-11-04T18:51:44.562Z,10.79
2022-11-04T18:54:13.371Z,10.72
2022-11-04T18:56:41.170Z,10.71
2022-11-04T18:59:11.328Z,10.70
2022-11-04T19:01:39.315Z,10.70
2022-11-04T19:04:07.137Z,10.72
2022-11-04T19:06:40.071Z,10.68
2022-11-04T19:09:32.484Z,10.62
2022-11-04T19:12:11.524Z,10.59
2022-11-04T19:14:40.895Z,10.61
2022-11-04T19:17:09.646Z,10.65
2022-11-04T19:19:37.457Z,10.62
2022-11-04T19:22:05.077Z,10.60
2022-11-04T19:24:32.723Z,10.64
2022-11-04T19:27:00.361Z,10.67
2022-11-04T19:29:29.019Z,10.72
2022-11-04T19:31:58.281Z,10.65
2022-11-04T19:34:25.975Z,10.58
2022-11-04T19:36:53.686Z,10.48
2022-11-04T19:39:21.425Z,10.52
2022-11-04T19:42:06.995Z,10.59
2022-11-04T19:44:34.536Z,10.60
2022-11-04T19:47:03.515Z,10.55
2022-11-04T19:49:31.620Z,10.53
2022-11-04T19:51:59.391Z,10.56
2022-11-04T19:54:28.156Z,10.56
2022-11-04T19:56:55.903Z,10.47
2022-11-04T19:59:23.593Z,10.49
2022-11-04T20:01:51.625Z,10.48
2022-11-04T20:04:20.701Z,10.42
2022-11-04T20:06:48.312Z,10.39
2022-11-04T20:09:16.029Z,10.32
2022-11-04T20:11:57.616Z,10.30
2022-11-04T20:14:25.771Z,10.30
2022-11-04T20:16:54.023Z,10.33
2022-11-04T20:19:23.521Z,10.36
2022-11-04T20:21:51.437Z,10.40
2022-11-04T20:24:20.433Z,10.44
2022-11-04T20:26:48.186Z,10.51
2022-11-04T20:29:16.937Z,10.59
2022-11-04T20:31:45.247Z,10.62
2022-11-04T20:34:14.380Z,10.70
2022-11-04T20:36:43.772Z,10.73
2022-11-04T20:39:14.253Z,10.77
2022-11-04T20:41:42.358Z,10.76
2022-11-04T20:44:10.773Z,10.66
2022-11-04T20:46:38.572Z,10.65
2022-11-04T20:49:06.442Z,10.65
2022-11-04T20:51:37.179Z,10.55
2022-11-04T20:54:07.834Z,10.56
2022-11-04T20:56:38.818Z,10.52
2022-11-04T20:59:07.226Z,10.51
2022-11-04T21:01:37.156Z,10.53
2022-11-04T21:04:06.639Z,10.54
2022-11-04T21:06:37.518Z,10.54
2022-11-04T21:09:08.202Z,10.46
2022-11-04T21:11:36.568Z,10.53
2022-11-04T21:14:06.547Z,10.61
2022-11-04T21:16:35.490Z,10.57
2022-11-04T21:19:05.093Z,10.54
2022-11-04T21:21:33.316Z,10.47
2022-11-04T21:24:03.624Z,10.43
2022-11-04T21:26:35.056Z,10.48
2022-11-04T21:29:06.874Z,10.44
2022-11-04T21:31:37.262Z,10.47
2022-11-04T21:34:05.989Z,10.44
2022-11-04T21:36:34.042Z,10.44
2022-11-04T21:39:02.103Z,10.33
2022-11-04T21:41:36.980Z,10.34
2022-11-04T21:44:08.160Z,10.37
2022-11-04T21:46:36.443Z,10.43
2022-11-04T21:49:04.449Z,10.43
2022-11-04T21:51:34.362Z,10.38
2022-11-04T21:54:05.722Z,10.43
2022-11-04T21:56:35.971Z,10.41
2022-11-04T21:59:06.643Z,10.49
2022-11-04T22:01:34.803Z,10.42
2022-11-04T22:04:03.125Z,10.49
2022-11-04T22:06:35.113Z,10.52
2022-11-04T22:09:05.927Z,10.55
2022-11-04T22:11:38.889Z,10.57
2022-11-04T22:14:08.365Z,10.60
2022-11-04T22:16:38.508Z,10.62
2022-11-04T22:19:08.546Z,10.78
2022-11-04T22:21:40.040Z,10.70
2022-11-04T22:24:09.628Z,10.61
2022-11-04T22:26:38.722Z,10.54
2022-11-04T22:29:06.444Z,10.57
2022-11-04T22:31:37.585Z,10.56
2022-11-04T22:34:06.368Z,10.69
2022-11-04T22:36:34.927Z,10.61
2022-11-04T22:39:03.324Z,10.68
2022-11-04T22:41:32.600Z,10.61
2022-11-04T22:44:01.906Z,10.56
2022-11-04T22:46:31.612Z,10.47
2022-11-04T22:49:00.459Z,10.53
2022-11-04T22:51:29.572Z,10.40
2022-11-04T22:54:02.944Z,10.47
2022-11-04T22:56:34.215Z,10.53
2022-11-04T22:59:03.291Z,10.37
2022-11-04T23:01:33.172Z,10.32
2022-11-04T23:04:01.030Z,10.20
2022-11-04T23:06:28.790Z,10.24
2022-11-04T23:09:00.033Z,10.22
2022-11-04T23:11:47.582Z,10.17
2022-11-04T23:14:35.943Z,10.10
2022-11-04T23:17:28.768Z,10.14
2022-11-04T23:19:56.447Z,10.12
2022-11-04T23:22:41.651Z,10.17
2022-11-04T23:25:10.341Z,10.11
2022-11-04T23:27:59.324Z,10.00
2022-11-04T23:30:33.645Z,9.94
2022-11-04T23:33:03.080Z,10.02
2022-11-04T23:35:51.374Z,10.03
2022-11-04T23:38:19.650Z,10.01
2022-11-04T23:41:08.695Z,10.02
2022-11-04T23:43:35.960Z,9.97
2022-11-04T23:46:22.273Z,9.98
2022-11-04T23:49:09.164Z,10.12
2022-11-04T23:51:54.751Z,10.11
2022-11-04T23:54:40.161Z,10.08
2022-11-04T23:57:30.900Z,10.16
